Time,TemperatureF,DewpointF,PressureIn,WindDirection,WindDirectionDegrees,WindSpeedMPH,WindSpeedGustMPH,Humidity,HourlyPrecipIn,Conditions,Clouds,dailyrainin,SoftwareType,DateUTC
2013-05-30 00:30:00,69.0,-99.9,-100.00,NNW,344,6.0,6.0,-999,-99.99,,,-99.99,,2013-05-30 05:30:00,
2013-05-30 01:22:00,69.0,-99.9,-100.00,NNW,344,6.0,6.0,-999,-99.99,,,-99.99,,2013-05-30 06:22:00,
2013-05-30 04:30:00,64.0,-99.9,-100.00,NW,315,6.0,6.0,-999,-99.99,,,-99.99,,2013-05-30 09:30:00,
2013-05-30 05:23:00,64.0,-99.9,-100.00,NW,315,6.0,6.0,-999,-99.99,,,-99.99,,2013-05-30 10:23:00,
2013-05-30 06:03:00,65.0,-99.9,-100.00,ESE,119,1.0,11.0,-999,-99.99,,,-99.99,,2013-05-30 11:03:00,
2013-05-30 06:12:00,65.0,-99.9,-100.00,ESE,119,1.0,11.0,-999,-99.99,,,-99.99,,2013-05-30 11:12:00,
2013-05-30 06:22:00,65.0,-99.9,-100.00,ESE,119,1.0,11.0,-999,-99.99,,,-99.99,,2013-05-30 11:22:00,
2013-05-30 08:22:00,68.0,-99.9,-100.00,NW,316,8.0,12.0,-999,-99.99,,,-99.99,,2013-05-30 13:22:00,
2013-05-30 08:32:00,68.0,-99.9,-100.00,NW,316,8.0,12.0,-999,-99.99,,,-99.99,,2013-05-30 13:32:00,
2013-05-30 08:42:00,68.0,-99.9,-100.00,NW,316,8.0,12.0,-999,-99.99,,,-99.99,,2013-05-30 13:42:00,
2013-05-30 11:33:00,83.0,-99.9,-100.00,NNW,328,12.0,27.0,-999,-99.99,,,-99.99,,2013-05-30 16:33:00,
2013-05-30 11:42:00,83.0,-99.9,-100.00,NNW,328,12.0,27.0,-999,-99.99,,,-99.99,,2013-05-30 16:42:00,
2013-05-30 11:53:00,82.0,-99.9,-100.00,NW,322,15.0,21.0,-999,-99.99,,,-99.99,,2013-05-30 16:53:00,
2013-05-30 12:03:00,82.0,-99.9,-100.00,NW,322,15.0,21.0,-999,-99.99,,,-99.99,,2013-05-30 17:03:00,
2013-05-30 12:32:00,82.0,-99.9,-100.00,West,269,9.0,19.0,-999,-99.99,,,-99.99,,2013-05-30 17:32:00,
2013-05-30 12:42:00,82.0,-99.9,-100.00,West,269,9.0,19.0,-999,-99.99,,,-99.99,,2013-05-30 17:42:00,
2013-05-30 13:10:00,87.0,-99.9,-100.00,WNW,302,16.0,23.0,-999,-99.99,,,-99.99,,2013-05-30 18:10:00,
2013-05-30 13:32:00,87.0,-99.9,-100.00,NW,324,17.0,21.0,-999,-99.99,,,-99.99,,2013-05-30 18:32:00,
2013-05-30 13:43:00,87.0,-99.9,-100.00,NW,324,17.0,21.0,-999,-99.99,,,-99.99,,2013-05-30 18:43:00,
2013-05-30 13:52:00,87.0,-99.9,-100.00,WNW,302,16.0,23.0,-999,-99.99,,,-99.99,,2013-05-30 18:52:00,
2013-05-30 14:02:00,87.0,-99.9,-100.00,WNW,302,16.0,23.0,-999,-99.99,,,-99.99,,2013-05-30 19:02:00,
2013-05-30 17:10:00,88.0,-99.9,-100.00,WNW,284,13.0,16.0,-999,-99.99,,,-99.99,,2013-05-30 22:10:00,
2013-05-30 17:52:00,88.0,-99.9,-100.00,WNW,284,13.0,16.0,-999,-99.99,,,-99.99,,2013-05-30 22:52:00,
2013-05-30 18:02:00,88.0,-99.9,-100.00,WNW,284,13.0,16.0,-999,-99.99,,,-99.99,,2013-05-30 23:02:00,
2013-05-30 19:40:00,88.0,-99.9,-100.00,NW,314,10.0,12.0,-999,-99.99,,,-99.99,,2013-05-31 00:40:00,
2013-05-30 20:22:00,88.0,-99.9,-100.00,NW,314,10.0,12.0,-999,-99.99,,,-99.99,,2013-05-31 01:22:00,
2013-05-30 20:32:00,88.0,-99.9,-100.00,NW,314,10.0,12.0,-999,-99.99,,,-99.99,,2013-05-31 01:32:00,
2013-05-30 20:52:00,88.0,-99.9,-100.00,SE,134,4.0,12.0,-999,-99.99,,,-99.99,,2013-05-31 01:52:00,
2013-05-30 21:02:00,88.0,-99.9,-100.00,SE,134,4.0,12.0,-999,-99.99,,,-99.99,,2013-05-31 02:02:00,
2013-05-30 21:11:00,86.0,-99.9,-100.00,SE,131,2.0,11.0,-999,-99.99,,,-99.99,,2013-05-31 02:11:00,
2013-05-30 21:22:00,86.0,-99.9,-100.00,SE,131,2.0,11.0,-999,-99.99,,,-99.99,,2013-05-31 02:22:00,
2013-05-30 21:32:00,86.0,-99.9,-100.00,SE,131,2.0,11.0,-999,-99.99,,,-99.99,,2013-05-31 02:32:00,